createdAt,value
2023-12-16T00:00:12.841Z,96.53
2023-12-16T00:05:31.929Z,96.7
2023-12-16T00:10:53.687Z,96.62
2023-12-16T00:16:09.818Z,96.52
2023-12-16T00:21:29.127Z,96.49
2023-12-16T00:26:48.196Z,96.52
2023-12-16T00:32:07.789Z,96.51
2023-12-16T00:37:27.184Z,96.64
2023-12-16T00:42:46.097Z,96.56
2023-12-16T00:48:05.123Z,96.69
2023-12-16T00:53:24.932Z,96.79
2023-12-16T00:58:43.419Z,96.77
2023-12-16T01:04:02.826Z,96.74
2023-12-16T01:09:22.491Z,96.89
2023-12-16T01:14:41.221Z,96.88
2023-12-16T01:20:00.609Z,96.81
2023-12-16T01:25:19.876Z,96.76
2023-12-16T01:30:39.184Z,96.69
2023-12-16T01:35:58.968Z,96.55
2023-12-16T01:41:17.230Z,96.39
2023-12-16T01:46:36.980Z,96.3
2023-12-16T01:51:55.945Z,96.23
2023-12-16T01:57:14.762Z,96.64
2023-12-16T02:02:34.413Z,97.1
2023-12-16T02:07:53.585Z,97.24
2023-12-16T02:13:13.104Z,97.02
2023-12-16T02:18:35.778Z,96.77
2023-12-16T02:23:51.824Z,96.75
2023-12-16T02:29:10.760Z,97.19
2023-12-16T02:34:30.421Z,97.43
2023-12-16T02:39:49.892Z,97.47
2023-12-16T02:45:44.270Z,97.26
2023-12-16T02:51:03.429Z,97.05
2023-12-16T02:56:22.671Z,96.76
2023-12-16T03:01:41.552Z,96.45
2023-12-16T03:07:00.890Z,96.33
2023-12-16T03:12:20.246Z,96.17
2023-12-16T03:17:39.097Z,96.15
2023-12-16T03:22:58.287Z,96.16
2023-12-16T03:28:18.016Z,96.06
2023-12-16T03:33:37.540Z,95.94
2023-12-16T03:38:56.268Z,95.85
2023-12-16T03:44:15.655Z,95.81
2023-12-16T03:49:34.999Z,95.74
2023-12-16T03:54:54.635Z,95.69
2023-12-16T04:00:14.081Z,95.62
2023-12-16T04:05:32.701Z,95.66
2023-12-16T04:10:51.972Z,95.84
2023-12-16T04:16:11.709Z,95.86
2023-12-16T04:21:30.614Z,95.79
2023-12-16T04:26:49.322Z,95.69
2023-12-16T04:32:08.533Z,95.73
2023-12-16T04:37:27.875Z,95.7
2023-12-16T04:42:46.222Z,95.74
2023-12-16T04:48:05.133Z,95.83
2023-12-16T04:53:24.444Z,95.84
2023-12-16T04:58:44.472Z,95.89
2023-12-16T05:04:03.769Z,95.92
2023-12-16T05:09:22.727Z,95.93
2023-12-16T05:14:41.789Z,95.84
2023-12-16T05:20:01.325Z,95.74
2023-12-16T05:25:20.553Z,95.6
2023-12-16T05:30:40.416Z,95.6
2023-12-16T05:35:59.191Z,95.67
2023-12-16T05:41:18.248Z,95.54
2023-12-16T05:46:38.144Z,95.35
2023-12-16T05:51:57.350Z,95.27
2023-12-16T05:57:16.707Z,95.32
2023-12-16T06:02:36.147Z,95.49
2023-12-16T06:07:55.341Z,95.72
2023-12-16T06:13:14.717Z,95.95
2023-12-16T06:18:33.682Z,95.89
2023-12-16T06:23:52.599Z,95.97
2023-12-16T06:29:12.080Z,95.93
2023-12-16T06:34:32.044Z,95.79
2023-12-16T06:39:50.366Z,95.58
2023-12-16T06:45:10.032Z,95.46
2023-12-16T06:50:29.137Z,95.35
2023-12-16T06:55:50.658Z,95.23
2023-12-16T07:01:08.427Z,95.28
2023-12-16T07:06:27.327Z,95.41
2023-12-16T07:11:46.301Z,95.49
2023-12-16T07:17:06.040Z,95.48
2023-12-16T07:22:25.152Z,95.71
2023-12-16T07:27:43.913Z,95.75
2023-12-16T07:33:03.277Z,95.72
2023-12-16T07:38:23.005Z,95.43
2023-12-16T07:43:42.667Z,94.78
2023-12-16T07:49:01.344Z,94.57
2023-12-16T07:54:20.160Z,94.43
2023-12-16T07:59:39.753Z,94.32
2023-12-16T08:04:58.749Z,93.96
2023-12-16T08:10:18.639Z,94.12
2023-12-16T08:15:38.524Z,94.11
2023-12-16T08:20:57.793Z,93.85
2023-12-16T08:26:16.378Z,93.59
2023-12-16T08:31:35.369Z,93.89
2023-12-16T08:36:54.420Z,93.44
2023-12-16T08:42:14.077Z,92.91
2023-12-16T08:47:32.994Z,92.57
2023-12-16T08:52:51.797Z,92.03
2023-12-16T08:58:11.512Z,91.9
2023-12-16T09:03:30.666Z,91.25
2023-12-16T09:08:49.768Z,91.62
2023-12-16T09:14:08.459Z,91.23
2023-12-16T09:19:27.659Z,91.52
2023-12-16T09:24:46.810Z,91.22
2023-12-16T09:30:05.823Z,90.54
2023-12-16T09:35:24.418Z,90.97
2023-12-16T09:40:43.398Z,90.66
2023-12-16T09:51:21.789Z,90.35
2023-12-16T09:56:41.483Z,89.68
2023-12-16T10:07:19.389Z,88.61
2023-12-16T10:12:39.300Z,88.6
2023-12-16T10:17:58.379Z,88.12
2023-12-16T10:23:16.958Z,88.87
2023-12-16T10:39:14.717Z,87.09
2023-12-16T10:49:53.231Z,86.84
2023-12-16T10:55:12.629Z,85.69
2023-12-16T11:05:50.556Z,85.41
2023-12-16T11:11:10.183Z,84.28
2023-12-16T11:16:29.737Z,83.52
2023-12-16T11:21:49.107Z,83.73
2023-12-16T11:32:28.251Z,82.8
2023-12-16T11:37:46.186Z,81.87
2023-12-16T11:48:23.915Z,81.4
2023-12-16T11:53:43.171Z,82.48
2023-12-16T11:59:02.564Z,80.08
2023-12-16T12:04:22.132Z,78.76
2023-12-16T12:15:01.347Z,75.79
2023-12-16T12:20:20.535Z,74.53
2023-12-16T12:30:59.061Z,74.05
2023-12-16T12:36:17.837Z,72.16
2023-12-16T12:46:55.459Z,71.19
2023-12-16T13:02:53.129Z,72.69
2023-12-16T13:13:31.120Z,72.74
2023-12-16T13:18:50.298Z,73.08
2023-12-16T13:29:28.722Z,72.06
2023-12-16T13:45:28.033Z,73.46
2023-12-16T13:56:05.761Z,72.61
2023-12-16T14:01:25.612Z,73.33
2023-12-16T14:12:04.103Z,73.6
2023-12-16T14:17:22.770Z,73.17
2023-12-16T14:28:01.366Z,72.58
2023-12-16T14:38:40.580Z,72.47
2023-12-16T14:43:59.794Z,72.85
2023-12-16T14:54:37.958Z,72.94
2023-12-16T14:59:57.351Z,73.54
2023-12-16T15:10:36.620Z,74.87
2023-12-16T15:15:55.655Z,75.31
2023-12-16T15:21:15.392Z,74.99
2023-12-16T15:26:34.586Z,75.19
2023-12-16T15:37:15.333Z,76.51
2023-12-16T15:42:32.226Z,77.5
2023-12-16T15:53:10.743Z,77.71
2023-12-16T15:58:29.365Z,77.87
2023-12-16T16:03:48.567Z,77.87
2023-12-16T16:14:26.854Z,79.04
2023-12-16T16:19:46.798Z,80.69
2023-12-16T16:30:25.741Z,82.41
2023-12-16T16:35:45.191Z,83.07
2023-12-16T16:46:23.944Z,85.36
2023-12-16T16:57:02.792Z,86.12
2023-12-16T17:02:22.754Z,86.21
2023-12-16T17:13:01.355Z,86.95
2023-12-16T17:18:20.629Z,86.55
2023-12-16T17:28:58.838Z,86.3
2023-12-16T17:39:36.280Z,87.15
2023-12-16T17:44:55.992Z,88.94
2023-12-16T17:55:34.435Z,90.85
2023-12-16T18:00:54.444Z,91.39
2023-12-16T18:11:32.084Z,92.38
2023-12-16T18:16:51.538Z,93.34
2023-12-16T18:22:10.672Z,93.4
2023-12-16T18:27:30.189Z,93.71
2023-12-16T18:38:08.758Z,94.71
2023-12-16T18:43:28.009Z,94.91
2023-12-16T18:54:06.230Z,95.49
2023-12-16T19:04:44.463Z,95.67
2023-12-16T19:10:04.158Z,95.83
2023-12-16T19:20:42.695Z,96.45
2023-12-16T19:26:02.397Z,96.88
2023-12-16T19:36:41.092Z,97.54
2023-12-16T19:47:20.001Z,98.01
2023-12-16T19:52:39.511Z,97.95
2023-12-16T20:03:18.913Z,98.35
2023-12-16T20:08:37.897Z,98.28
2023-12-16T20:19:16.991Z,98.04
2023-12-16T20:24:35.566Z,98.16
2023-12-16T20:35:47.190Z,96.6
2023-12-16T20:41:06.361Z,96.57
2023-12-16T20:51:44.727Z,96.36
2023-12-16T20:57:04.278Z,94.94
2023-12-16T21:07:43.021Z,93.08
2023-12-16T21:23:40.552Z,90.74
2023-12-16T21:34:19.645Z,94.88
2023-12-16T21:39:39.181Z,95.93
2023-12-16T21:50:18.112Z,94.95
2023-12-16T22:06:16.394Z,92.7
2023-12-16T22:16:54.982Z,92.57
2023-12-16T22:22:14.876Z,94.98
2023-12-16T22:32:51.805Z,96.92
2023-12-16T22:43:30.285Z,97.22
2023-12-16T22:54:09.728Z,98
2023-12-16T22:59:28.693Z,98
2023-12-16T23:10:10.386Z,97.44
2023-12-16T23:15:26.072Z,96.38
2023-12-16T23:20:45.842Z,96.38
2023-12-16T23:26:04.944Z,96.03
2023-12-16T23:36:44.744Z,94.6
2023-12-16T23:42:02.937Z,94.08
2023-12-16T23:52:41.861Z,93.25
2023-12-16T23:58:00.985Z,94.34
